Terminal Aerodrome Forecast
Issued by NWS Charleston, WV

Current Version | Previous Version | Text Only | Print | Product List | Glossary On
Versions: 1 2 3 4 5 6 7 8 9 10 11 12 13 14 15 16 17 18 19 20 21 22
000
FTUS41 KRLX 202320
TAFEKN
TAF
KEKN 202320Z 2100/2124 01002KT P6SM FEW250
     FM210800 VRB02KT 5SM BR SCT250
     FM211300 14005KT P6SM SCT200
     FM211600 16008KT P6SM SCT200
     FM212100 18007KT P6SM BKN150=

USA.gov is the U.S. government's official web portal to all federal, state and local government web resources and services.